Terminal Aerodrome Forecast
Issued by NWS

Home | Current Version | Previous Version | Text Only | Print | Product List | Glossary On
Versions: 1 2 3 4 5 6 7 8 9 10 11
000
FTUS46 KMTR 112329
TAFSJC
TAF
KSJC 112329Z 1200/1224 00000KT P6SM FEW018 FEW060 BKN120
     FM120100 VRB03KT P6SM FEW018 FEW060 BKN120
     FM120700 00000KT P6SM FEW200
     FM122200 31004KT P6SM FEW200=

USA.gov is the U.S. government's official web portal to all federal, state and local government web resources and services.